createdAt,value
2024-03-05T00:00:48.894Z,22.10
2024-03-05T00:01:48.850Z,21.00
2024-03-05T00:02:48.896Z,21.10
2024-03-05T00:03:48.814Z,22.00
2024-03-05T00:04:48.906Z,22.50
2024-03-05T00:05:48.796Z,22.30
2024-03-05T00:06:48.783Z,22.00
2024-03-05T00:07:48.809Z,22.20
2024-03-05T00:08:48.773Z,21.70
2024-03-05T00:09:48.763Z,20.90
2024-03-05T00:10:48.915Z,22.30
2024-03-05T00:11:48.828Z,22.60
2024-03-05T00:12:48.727Z,23.00
2024-03-05T00:13:48.714Z,22.70
2024-03-05T00:14:48.699Z,21.40
2024-03-05T00:15:48.679Z,22.80
2024-03-05T00:16:48.788Z,24.40
2024-03-05T00:17:48.731Z,24.00
2024-03-05T00:18:48.649Z,24.50
2024-03-05T00:19:48.695Z,23.90
2024-03-05T00:20:48.625Z,23.40
2024-03-05T00:21:48.623Z,22.80
2024-03-05T00:22:48.700Z,23.60
2024-03-05T00:23:48.604Z,22.80
2024-03-05T00:24:48.583Z,23.80
2024-03-05T00:25:48.616Z,23.00
2024-03-05T00:26:48.575Z,21.30
2024-03-05T00:27:48.568Z,21.10
2024-03-05T00:28:48.602Z,22.40
2024-03-05T00:29:48.539Z,22.10
2024-03-05T00:30:48.545Z,22.30
2024-03-05T00:31:48.651Z,23.40
2024-03-05T00:32:48.541Z,23.60
2024-03-05T00:33:48.495Z,23.30
2024-03-05T00:34:48.559Z,25.20
2024-03-05T00:35:48.481Z,26.00
2024-03-05T00:36:48.458Z,24.00
2024-03-05T00:37:48.486Z,25.10
2024-03-05T00:38:48.452Z,25.20
2024-03-05T00:39:48.438Z,25.60
2024-03-05T00:40:48.450Z,27.30
2024-03-05T00:41:48.409Z,27.00
2024-03-05T00:42:48.392Z,28.30
2024-03-05T00:43:48.413Z,27.40
2024-03-05T00:44:48.369Z,26.50
2024-03-05T00:45:48.384Z,27.10
2024-03-05T00:46:48.384Z,28.90
2024-03-05T00:47:48.364Z,26.70
2024-03-05T00:48:48.334Z,26.10
2024-03-05T00:49:48.407Z,27.10
2024-03-05T00:50:48.323Z,27.80
2024-03-05T00:51:48.322Z,27.80
2024-03-05T00:52:48.364Z,26.40
2024-03-05T00:53:48.290Z,26.60
2024-03-05T00:54:48.276Z,27.60
2024-03-05T00:55:48.279Z,27.40
2024-03-05T00:56:48.300Z,28.40
2024-03-05T00:57:48.258Z,27.70
2024-03-05T00:58:48.258Z,27.00
2024-03-05T00:59:49.759Z,27.30
2024-03-05T01:00:48.230Z,29.40
2024-03-05T01:01:48.240Z,27.00
2024-03-05T01:02:48.175Z,27.30
2024-03-05T01:03:48.177Z,27.10
2024-03-05T01:04:48.190Z,27.50
2024-03-05T01:05:48.169Z,26.90
2024-03-05T01:06:48.141Z,26.00
2024-03-05T01:07:48.156Z,25.80
2024-03-05T01:08:48.130Z,25.40
2024-03-05T01:09:48.112Z,27.10
2024-03-05T01:10:48.170Z,28.10
2024-03-05T01:11:48.153Z,27.80
2024-03-05T01:12:48.084Z,27.30
2024-03-05T01:13:48.106Z,27.80
2024-03-05T01:14:48.068Z,30.70
2024-03-05T01:15:48.040Z,31.50
2024-03-05T01:16:48.079Z,31.00
2024-03-05T01:17:48.107Z,32.40
2024-03-05T01:18:48.016Z,32.90
2024-03-05T01:19:48.101Z,30.90
2024-03-05T01:20:47.989Z,33.30
2024-03-05T01:21:47.979Z,31.70
2024-03-05T01:22:48.042Z,33.60
2024-03-05T01:23:47.955Z,32.20
2024-03-05T01:24:47.959Z,32.20
2024-03-05T01:25:47.970Z,30.90
2024-03-05T01:26:47.924Z,32.80
2024-03-05T01:27:47.921Z,30.10
2024-03-05T01:28:47.977Z,31.20
2024-03-05T01:29:47.895Z,32.00
2024-03-05T01:30:47.920Z,32.40
2024-03-05T01:31:48.032Z,31.40
2024-03-05T01:32:47.959Z,31.60
2024-03-05T01:33:47.855Z,32.00
2024-03-05T01:34:47.916Z,30.90
2024-03-05T01:35:47.878Z,31.50
2024-03-05T01:36:47.832Z,31.60
2024-03-05T01:37:47.826Z,31.30
2024-03-05T01:38:47.790Z,31.10
2024-03-05T01:39:47.786Z,31.00
2024-03-05T01:40:47.891Z,31.60
2024-03-05T01:41:47.774Z,31.20
2024-03-05T01:42:47.799Z,32.40
2024-03-05T01:43:47.825Z,30.70
2024-03-05T01:44:47.729Z,30.30
2024-03-05T01:45:47.749Z,30.50
2024-03-05T01:46:47.812Z,30.80
2024-03-05T01:47:47.751Z,30.50
2024-03-05T01:48:47.692Z,30.40
2024-03-05T01:49:47.733Z,31.00
2024-03-05T01:50:47.693Z,31.70
2024-03-05T01:51:47.668Z,33.00
2024-03-05T01:52:47.710Z,31.40
2024-03-05T01:53:47.652Z,30.20
2024-03-05T01:54:47.627Z,28.90
2024-03-05T01:55:47.673Z,30.00
2024-03-05T01:56:47.608Z,29.30
2024-03-05T01:57:47.600Z,31.80
2024-03-05T01:58:47.644Z,31.00
2024-03-05T01:59:47.600Z,31.30
2024-03-05T02:00:47.663Z,31.20
2024-03-05T02:01:47.746Z,32.40
2024-03-05T02:02:47.563Z,33.00
2024-03-05T02:03:47.544Z,32.90
2024-03-05T02:04:47.572Z,32.60
2024-03-05T02:05:47.611Z,33.70
2024-03-05T02:06:47.498Z,32.60
2024-03-05T02:07:47.540Z,31.60
2024-03-05T02:08:47.479Z,30.60
2024-03-05T02:09:47.506Z,29.90
2024-03-05T02:10:47.486Z,31.40
2024-03-05T02:11:53.015Z,29.90
2024-03-05T02:12:48.458Z,29.10
2024-03-05T02:13:47.511Z,30.50
2024-03-05T02:14:48.608Z,29.90
2024-03-05T02:15:48.567Z,31.00
2024-03-05T02:16:48.594Z,29.60
2024-03-05T02:17:48.608Z,28.80
2024-03-05T02:18:48.533Z,26.70
2024-03-05T02:19:48.613Z,27.40
2024-03-05T02:20:48.481Z,27.10
2024-03-05T02:21:48.485Z,27.20
2024-03-05T02:22:48.497Z,26.40
2024-03-05T02:23:48.498Z,27.80
2024-03-05T02:24:48.445Z,28.70
2024-03-05T02:25:48.461Z,28.40
2024-03-05T02:26:48.543Z,26.00
2024-03-05T02:27:48.440Z,26.30
2024-03-05T02:28:48.565Z,24.00
2024-03-05T02:29:48.402Z,26.90
2024-03-05T02:30:48.409Z,28.20
2024-03-05T02:31:48.543Z,26.30
2024-03-05T02:32:48.472Z,28.80
2024-03-05T02:33:48.387Z,27.40
2024-03-05T02:34:48.447Z,25.60
2024-03-05T02:35:48.348Z,27.50
2024-03-05T02:36:48.338Z,27.90
2024-03-05T02:37:48.369Z,27.90
2024-03-05T02:38:48.327Z,27.90
2024-03-05T02:39:48.316Z,28.70
2024-03-05T02:40:48.369Z,28.80
2024-03-05T02:41:48.311Z,30.80
2024-03-05T02:42:48.411Z,30.00
2024-03-05T02:43:48.403Z,31.90
2024-03-05T02:44:48.302Z,32.50
2024-03-05T02:45:48.316Z,33.30
2024-03-05T02:46:48.330Z,33.30
2024-03-05T02:47:48.297Z,32.90
2024-03-05T02:48:48.214Z,32.90
2024-03-05T02:49:48.225Z,33.20
2024-03-05T02:50:48.248Z,33.50
2024-03-05T02:51:48.232Z,33.10
2024-03-05T02:52:48.233Z,34.00
2024-03-05T02:53:48.182Z,32.50
2024-03-05T02:54:48.171Z,31.60
2024-03-05T02:55:48.197Z,32.00
2024-03-05T02:56:48.237Z,32.70
2024-03-05T02:57:48.148Z,31.20
2024-03-05T02:58:48.172Z,33.70
2024-03-05T02:59:48.121Z,31.50
2024-03-05T03:00:48.232Z,31.90
2024-03-05T03:01:48.224Z,30.30
2024-03-05T03:02:48.117Z,32.90
2024-03-05T03:03:48.082Z,34.80
2024-03-05T03:04:48.120Z,34.00
2024-03-05T03:05:48.078Z,32.90
2024-03-05T03:06:48.052Z,34.20
2024-03-05T03:07:48.096Z,33.50
2024-03-05T03:08:48.035Z,33.00
2024-03-05T03:09:48.046Z,33.60
2024-03-05T03:10:48.075Z,33.30
2024-03-05T03:11:48.134Z,29.00
2024-03-05T03:12:47.985Z,29.50
2024-03-05T03:13:48.064Z,30.80
2024-03-05T03:14:48.039Z,30.20
2024-03-05T03:15:48.005Z,29.60
2024-03-05T03:16:47.969Z,30.50
2024-03-05T03:17:47.975Z,30.30
2024-03-05T03:18:47.926Z,29.90
2024-03-05T03:19:47.960Z,30.50
2024-03-05T03:20:47.908Z,30.60
2024-03-05T03:21:47.916Z,30.70
2024-03-05T03:22:47.928Z,29.10
2024-03-05T03:23:47.891Z,29.60
2024-03-05T03:24:47.881Z,30.70
2024-03-05T03:25:47.897Z,30.20
2024-03-05T03:26:47.889Z,30.70
2024-03-05T03:27:47.840Z,28.70
2024-03-05T03:28:47.837Z,26.90
2024-03-05T03:29:47.854Z,28.00
2024-03-05T03:30:48.807Z,26.50
2024-03-05T03:31:47.870Z,26.70
2024-03-05T03:32:47.801Z,26.80
2024-03-05T03:33:47.782Z,27.20
2024-03-05T03:34:48.023Z,26.30
2024-03-05T03:35:47.862Z,26.00
2024-03-05T03:36:47.746Z,27.60
2024-03-05T03:37:47.873Z,26.10
2024-03-05T03:38:47.737Z,26.00
2024-03-05T03:39:47.758Z,24.80
2024-03-05T03:40:47.718Z,25.10
2024-03-05T03:41:49.985Z,25.40
2024-03-05T03:42:48.674Z,27.80
2024-03-05T03:43:47.752Z,26.10
2024-03-05T03:44:48.501Z,25.50
2024-03-05T03:45:47.670Z,25.20
2024-03-05T03:46:48.650Z,25.40
2024-03-05T03:47:48.063Z,26.00
2024-03-05T03:48:47.667Z,26.40
2024-03-05T03:49:47.800Z,27.80
2024-03-05T03:50:47.664Z,27.60
2024-03-05T03:51:47.594Z,27.00
2024-03-05T03:52:47.664Z,28.70
2024-03-05T03:53:47.613Z,27.50
2024-03-05T03:54:47.601Z,28.10
2024-03-05T03:55:47.632Z,27.10
2024-03-05T03:56:47.576Z,26.00
2024-03-05T03:57:47.594Z,27.70
2024-03-05T03:58:47.570Z,27.30
2024-03-05T03:59:47.530Z,26.50
2024-03-05T04:00:47.607Z,27.60
2024-03-05T04:01:47.542Z,27.90
2024-03-05T04:02:47.536Z,27.70
2024-03-05T04:03:47.519Z,29.50
2024-03-05T04:04:47.587Z,27.80
2024-03-05T04:05:47.496Z,27.90
2024-03-05T04:06:47.465Z,27.50
2024-03-05T04:07:47.608Z,28.30
2024-03-05T04:08:47.429Z,26.70
2024-03-05T04:09:47.421Z,28.10
2024-03-05T04:10:47.525Z,27.50
2024-03-05T04:11:47.625Z,27.70
2024-03-05T04:12:47.425Z,26.40
2024-03-05T04:13:47.411Z,28.80
2024-03-05T04:14:47.399Z,28.00
2024-03-05T04:15:47.381Z,27.40
2024-03-05T04:16:47.413Z,28.60
2024-03-05T04:17:47.482Z,29.40
2024-03-05T04:18:47.673Z,28.50
2024-03-05T04:19:47.401Z,28.90
2024-03-05T04:20:47.355Z,29.30
2024-03-05T04:21:47.343Z,28.60
2024-03-05T04:22:47.350Z,30.50
2024-03-05T04:23:47.318Z,30.70
2024-03-05T04:24:47.289Z,32.40
2024-03-05T04:25:47.293Z,30.60
2024-03-05T04:26:48.357Z,31.50
2024-03-05T04:27:47.666Z,31.00
2024-03-05T04:28:47.315Z,25.10
2024-03-05T04:29:47.272Z,25.30
2024-03-05T04:30:47.307Z,25.80
2024-03-05T04:31:50.970Z,23.50
2024-03-05T04:32:58.239Z,24.40
2024-03-05T04:33:49.429Z,23.30
2024-03-05T04:34:47.257Z,24.00
2024-03-05T04:35:47.194Z,22.20
2024-03-05T04:36:47.177Z,23.70
2024-03-05T04:37:47.165Z,23.70
2024-03-05T04:38:47.174Z,24.80
2024-03-05T04:39:47.201Z,23.60
2024-03-05T04:40:47.200Z,27.00
2024-03-05T04:41:47.114Z,28.20
2024-03-05T04:42:47.095Z,27.70
2024-03-05T04:43:47.116Z,27.60
2024-03-05T04:44:47.101Z,27.90
2024-03-05T04:45:47.083Z,26.50
2024-03-05T04:46:47.239Z,28.40
2024-03-05T04:47:47.135Z,28.60
2024-03-05T04:48:47.139Z,27.90
2024-03-05T04:49:47.890Z,28.90
2024-03-05T04:50:47.036Z,29.70
2024-03-05T04:51:47.005Z,30.30
2024-03-05T04:52:47.079Z,30.10
2024-03-05T04:53:47.040Z,29.20
2024-03-05T04:54:46.998Z,26.70
2024-03-05T04:55:46.982Z,26.90
2024-03-05T04:56:46.970Z,27.80
2024-03-05T04:57:46.943Z,26.90
2024-03-05T04:58:47.034Z,28.20
2024-03-05T04:59:48.616Z,28.40
2024-03-05T05:00:47.057Z,27.90
2024-03-05T05:01:46.937Z,28.00
2024-03-05T05:02:47.073Z,28.50
2024-03-05T05:03:46.941Z,28.90
2024-03-05T05:04:46.934Z,28.20
2024-03-05T05:05:46.963Z,27.80
2024-03-05T05:06:46.926Z,25.80
2024-03-05T05:07:46.929Z,26.30
2024-03-05T05:08:46.934Z,25.40
2024-03-05T05:09:46.885Z,27.40
2024-03-05T05:10:46.919Z,27.60
2024-03-05T05:11:46.851Z,26.90
2024-03-05T05:12:46.957Z,27.90
2024-03-05T05:13:48.275Z,27.70
2024-03-05T05:14:46.798Z,27.50
2024-03-05T05:15:46.760Z,25.70
2024-03-05T05:16:46.844Z,26.00
2024-03-05T05:17:47.094Z,26.30
2024-03-05T05:18:46.755Z,25.70
2024-03-05T05:19:46.799Z,28.10
2024-03-05T05:20:46.743Z,27.00
2024-03-05T05:21:46.833Z,27.20
2024-03-05T05:22:46.951Z,28.50
2024-03-05T05:23:46.700Z,26.60
2024-03-05T05:24:46.673Z,30.40
2024-03-05T05:25:46.684Z,30.30
2024-03-05T05:26:46.689Z,28.30
2024-03-05T05:27:46.723Z,28.90
2024-03-05T05:28:46.697Z,29.00
2024-03-05T05:29:47.175Z,27.20
2024-03-05T05:30:46.680Z,26.80
2024-03-05T05:31:46.736Z,26.50
2024-03-05T05:32:46.757Z,25.50
2024-03-05T05:33:46.670Z,26.00
2024-03-05T05:34:46.682Z,24.70
2024-03-05T05:35:46.551Z,23.20
2024-03-05T05:36:46.580Z,27.40
2024-03-05T05:37:46.643Z,25.50
2024-03-05T05:38:46.560Z,25.70
2024-03-05T05:39:46.565Z,25.60
2024-03-05T05:40:46.561Z,26.20
2024-03-05T05:41:46.513Z,28.40
2024-03-05T05:42:46.502Z,27.60
2024-03-05T05:43:46.538Z,29.30
2024-03-05T05:44:46.483Z,31.20
2024-03-05T05:45:46.482Z,31.40
2024-03-05T05:46:46.542Z,31.00
2024-03-05T05:47:46.507Z,31.60
2024-03-05T05:48:46.477Z,32.20
2024-03-05T05:49:46.522Z,34.70
2024-03-05T05:50:46.462Z,34.80
2024-03-05T05:51:46.399Z,35.00
2024-03-05T05:52:46.496Z,35.50
2024-03-05T05:53:46.412Z,34.20
2024-03-05T05:54:46.410Z,34.80
2024-03-05T05:55:46.475Z,34.00
2024-03-05T05:56:46.430Z,31.70
2024-03-05T05:57:46.347Z,30.30
2024-03-05T05:58:46.337Z,31.40
2024-03-05T05:59:46.424Z,31.20
2024-03-05T06:00:46.325Z,32.00
2024-03-05T06:01:46.527Z,31.70
2024-03-05T06:02:46.331Z,31.80
2024-03-05T06:03:46.309Z,29.40
2024-03-05T06:04:46.309Z,30.10
2024-03-05T06:05:46.282Z,31.50
2024-03-05T06:06:46.273Z,31.30
2024-03-05T06:07:46.280Z,32.90
2024-03-05T06:08:46.226Z,31.30
2024-03-05T06:09:46.258Z,31.80
2024-03-05T06:10:46.310Z,32.70
2024-03-05T06:11:46.276Z,33.90
2024-03-05T06:12:46.221Z,34.10
2024-03-05T06:13:46.269Z,34.00
2024-03-05T06:14:47.096Z,34.70
2024-03-05T06:15:46.152Z,35.20
2024-03-05T06:16:46.182Z,35.90
2024-03-05T06:17:46.184Z,35.10
2024-03-05T06:18:46.164Z,33.90
2024-03-05T06:19:46.155Z,34.80
2024-03-05T06:20:46.116Z,35.70
2024-03-05T06:21:46.164Z,35.80
2024-03-05T06:22:46.137Z,35.40
2024-03-05T06:23:48.881Z,33.10
2024-03-05T06:24:46.089Z,31.10
2024-03-05T06:25:46.144Z,32.50
2024-03-05T06:26:46.072Z,30.90
2024-03-05T06:27:46.068Z,30.10
2024-03-05T06:28:49.301Z,29.30
2024-03-05T06:29:46.037Z,29.20
2024-03-05T06:30:46.041Z,28.60
2024-03-05T06:31:45.989Z,28.70
2024-03-05T06:32:48.034Z,30.70
2024-03-05T06:33:46.042Z,30.40
2024-03-05T06:34:46.092Z,29.60
2024-03-05T06:35:45.973Z,30.30
2024-03-05T06:36:48.141Z,29.90
2024-03-05T06:37:47.119Z,29.40
2024-03-05T06:38:45.942Z,29.60
2024-03-05T06:39:46.146Z,28.70
2024-03-05T06:40:45.953Z,30.00
2024-03-05T06:41:45.927Z,28.60
2024-03-05T06:42:45.908Z,30.30
2024-03-05T06:43:45.936Z,28.90
2024-03-05T06:44:45.868Z,29.20
2024-03-05T06:45:45.895Z,27.50
2024-03-05T06:46:45.923Z,27.20
2024-03-05T06:47:46.182Z,29.20
2024-03-05T06:48:45.912Z,28.30
2024-03-05T06:49:45.981Z,28.20
2024-03-05T06:50:45.818Z,28.20
2024-03-05T06:51:45.827Z,28.70
2024-03-05T06:52:45.833Z,27.50
2024-03-05T06:53:45.836Z,28.20
2024-03-05T06:54:47.467Z,29.00
2024-03-05T06:55:46.830Z,29.30
2024-03-05T06:56:45.772Z,29.20
2024-03-05T06:57:45.774Z,29.60
2024-03-05T06:58:45.884Z,28.30
2024-03-05T06:59:45.742Z,29.20
2024-03-05T07:00:45.691Z,28.20
2024-03-05T07:01:45.760Z,28.00
2024-03-05T07:02:45.650Z,30.80
2024-03-05T07:03:45.633Z,31.70
2024-03-05T07:04:45.654Z,32.10
2024-03-05T07:05:45.630Z,30.40
2024-03-05T07:06:45.612Z,30.90
2024-03-05T07:07:45.601Z,29.20
2024-03-05T07:08:45.698Z,28.50
2024-03-05T07:09:45.574Z,29.00
2024-03-05T07:10:46.508Z,30.20
2024-03-05T07:11:48.523Z,30.60
2024-03-05T07:12:46.642Z,32.10
2024-03-05T07:13:45.716Z,29.10
2024-03-05T07:14:45.524Z,30.00
2024-03-05T07:15:45.599Z,28.10
2024-03-05T07:16:46.106Z,28.60
2024-03-05T07:17:45.558Z,27.70
2024-03-05T07:18:45.523Z,28.50
2024-03-05T07:19:45.546Z,28.70
2024-03-05T07:20:45.516Z,28.00
2024-03-05T07:21:45.544Z,27.60
2024-03-05T07:22:45.515Z,29.00
2024-03-05T07:23:45.485Z,28.20
2024-03-05T07:24:45.462Z,28.60
2024-03-05T07:25:45.461Z,26.20
2024-03-05T07:26:56.632Z,27.40
2024-03-05T07:27:47.464Z,31.40
2024-03-05T07:28:45.521Z,28.40
2024-03-05T07:29:45.477Z,28.10
2024-03-05T07:30:45.455Z,27.40
2024-03-05T07:31:45.417Z,27.60
2024-03-05T07:32:45.423Z,30.00
2024-03-05T07:33:47.872Z,27.30
2024-03-05T07:34:45.406Z,28.10
2024-03-05T07:35:46.401Z,28.60
2024-03-05T07:36:45.456Z,28.00
2024-03-05T07:37:45.488Z,27.50
2024-03-05T07:38:45.382Z,28.80
2024-03-05T07:39:45.369Z,28.20
2024-03-05T07:40:45.402Z,27.20
2024-03-05T07:41:45.373Z,27.80
2024-03-05T07:42:45.374Z,29.40
2024-03-05T07:43:45.388Z,28.80
2024-03-05T07:44:45.268Z,30.40
2024-03-05T07:45:48.078Z,28.50
2024-03-05T07:46:45.304Z,28.90
2024-03-05T07:47:45.321Z,28.30
2024-03-05T07:48:45.239Z,28.20
2024-03-05T07:49:45.222Z,29.60
2024-03-05T07:50:45.203Z,29.90
2024-03-05T07:51:45.761Z,27.50
2024-03-05T07:52:45.258Z,28.50
2024-03-05T07:53:45.173Z,27.40
2024-03-05T07:54:45.154Z,26.40
2024-03-05T07:55:47.114Z,26.80
2024-03-05T07:56:46.144Z,27.60
2024-03-05T07:57:45.140Z,28.60
2024-03-05T07:58:45.179Z,27.50
2024-03-05T07:59:45.119Z,28.40
2024-03-05T08:00:45.104Z,28.90
2024-03-05T08:01:45.141Z,27.40
2024-03-05T08:02:45.179Z,28.80
2024-03-05T08:03:45.095Z,27.20
2024-03-05T08:04:45.061Z,27.80
2024-03-05T08:05:45.048Z,27.00
2024-03-05T08:06:45.140Z,26.00
2024-03-05T08:07:45.112Z,27.50
2024-03-05T08:08:45.124Z,26.30
2024-03-05T08:09:45.040Z,26.90
2024-03-05T08:10:45.162Z,27.90
2024-03-05T08:11:45.097Z,28.80
2024-03-05T08:12:45.092Z,27.60
2024-03-05T08:13:45.167Z,27.00
2024-03-05T08:14:44.971Z,27.60
2024-03-05T08:15:44.960Z,27.30
2024-03-05T08:16:44.956Z,27.90
2024-03-05T08:17:45.706Z,27.30
2024-03-05T08:18:45.537Z,27.70
2024-03-05T08:19:44.972Z,27.50
2024-03-05T08:20:44.911Z,27.60
2024-03-05T08:21:44.906Z,27.00
2024-03-05T08:22:44.908Z,28.90
2024-03-05T08:23:45.086Z,27.60
2024-03-05T08:24:44.850Z,27.70
2024-03-05T08:25:47.300Z,27.80
2024-03-05T08:26:45.848Z,29.60
2024-03-05T08:27:44.828Z,28.40
2024-03-05T08:28:44.899Z,28.10
2024-03-05T08:29:44.810Z,26.60
2024-03-05T08:30:44.789Z,26.20
2024-03-05T08:31:44.820Z,27.00
2024-03-05T08:32:45.918Z,27.90
2024-03-05T08:33:44.755Z,28.50
2024-03-05T08:34:44.771Z,28.60
2024-03-05T08:35:44.892Z,27.60
2024-03-05T08:36:44.740Z,28.00
2024-03-05T08:37:44.753Z,27.60
2024-03-05T08:38:44.809Z,26.80
2024-03-05T08:39:44.702Z,27.80
2024-03-05T08:40:44.659Z,28.00
2024-03-05T08:41:44.648Z,27.50
2024-03-05T08:42:44.659Z,27.20
2024-03-05T08:43:44.676Z,26.60
2024-03-05T08:44:44.665Z,27.10
2024-03-05T08:45:44.633Z,27.80
2024-03-05T08:46:44.654Z,27.80
2024-03-05T08:47:44.637Z,28.00
2024-03-05T08:48:44.587Z,28.90
2024-03-05T08:49:44.602Z,28.30
2024-03-05T08:50:44.695Z,28.50
2024-03-05T08:51:44.556Z,29.70
2024-03-05T08:52:44.558Z,28.60
2024-03-05T08:53:44.559Z,28.80
2024-03-05T08:54:44.587Z,28.20
2024-03-05T08:55:44.601Z,27.20
2024-03-05T08:56:44.551Z,27.20
2024-03-05T08:57:44.582Z,29.20
2024-03-05T08:58:44.540Z,28.20
2024-03-05T08:59:44.489Z,27.40
2024-03-05T09:00:44.540Z,29.40
2024-03-05T09:01:44.690Z,28.90
2024-03-05T09:02:44.452Z,29.90
2024-03-05T09:03:44.511Z,28.90
2024-03-05T09:04:44.507Z,29.70
2024-03-05T09:05:47.625Z,29.80
2024-03-05T09:06:44.433Z,30.30
2024-03-05T09:07:44.499Z,31.80
2024-03-05T09:08:44.395Z,30.20
2024-03-05T09:09:44.398Z,29.90
2024-03-05T09:10:44.414Z,30.10
2024-03-05T09:11:44.394Z,32.70
2024-03-05T09:12:44.519Z,30.70
2024-03-05T09:13:44.388Z,29.90
2024-03-05T09:14:44.457Z,31.20
2024-03-05T09:15:44.897Z,31.30
2024-03-05T09:16:44.380Z,31.50
2024-03-05T09:17:44.429Z,30.50
2024-03-05T09:18:44.264Z,32.20
2024-03-05T09:19:44.270Z,30.80
2024-03-05T09:20:44.634Z,31.10
2024-03-05T09:21:44.530Z,30.50
2024-03-05T09:22:44.245Z,30.50
2024-03-05T09:23:44.223Z,30.00
2024-03-05T09:24:44.228Z,31.10
2024-03-05T09:25:44.395Z,30.40
2024-03-05T09:26:44.206Z,30.30
2024-03-05T09:27:44.242Z,30.90
2024-03-05T09:28:44.250Z,30.80
2024-03-05T09:29:44.222Z,30.20
2024-03-05T09:30:44.218Z,31.10
2024-03-05T09:31:44.189Z,29.70
2024-03-05T09:32:44.802Z,30.70
2024-03-05T09:33:44.178Z,30.90
2024-03-05T09:34:44.194Z,27.80
2024-03-05T09:35:44.122Z,31.60
2024-03-05T09:36:44.112Z,29.80
2024-03-05T09:37:44.116Z,31.70
2024-03-05T09:38:44.126Z,30.80
2024-03-05T09:39:44.078Z,30.20
2024-03-05T09:40:44.104Z,31.90
2024-03-05T09:41:44.035Z,31.20
2024-03-05T09:42:44.015Z,32.60
2024-03-05T09:43:44.022Z,33.70
2024-03-05T09:44:44.048Z,33.70
2024-03-05T09:45:44.073Z,33.80
2024-03-05T09:46:43.990Z,36.20
2024-03-05T09:47:44.245Z,35.30
2024-03-05T09:48:44.048Z,34.70
2024-03-05T09:49:43.970Z,33.70
2024-03-05T09:50:43.937Z,34.70
2024-03-05T09:51:43.925Z,34.20
2024-03-05T09:52:43.927Z,32.50
2024-03-05T09:53:43.945Z,33.30
2024-03-05T09:54:43.929Z,34.40
2024-03-05T09:55:44.003Z,34.10
2024-03-05T09:56:43.861Z,32.30
2024-03-05T09:57:43.897Z,32.40
2024-03-05T09:58:43.962Z,31.10
2024-03-05T09:59:44.004Z,32.00
2024-03-05T10:00:43.911Z,32.40
2024-03-05T10:01:44.023Z,32.60
2024-03-05T10:02:43.880Z,31.70
2024-03-05T10:03:43.839Z,30.60
2024-03-05T10:04:43.896Z,33.20
2024-03-05T10:05:43.774Z,30.80
2024-03-05T10:06:43.765Z,28.30
2024-03-05T10:07:43.841Z,30.30
2024-03-05T10:08:43.771Z,28.80
2024-03-05T10:09:43.790Z,28.70
2024-03-05T10:10:43.848Z,27.80
2024-03-05T10:11:43.837Z,26.30
2024-03-05T10:12:43.708Z,25.70
2024-03-05T10:13:43.809Z,26.40
2024-03-05T10:14:43.705Z,24.90
2024-03-05T10:15:43.723Z,24.70
2024-03-05T10:16:43.704Z,24.00
2024-03-05T10:17:43.699Z,25.10
2024-03-05T10:18:43.682Z,23.90
2024-03-05T10:19:43.793Z,24.80
2024-03-05T10:20:43.612Z,24.70
2024-03-05T10:21:43.558Z,24.10
2024-03-05T10:22:43.612Z,23.20
2024-03-05T10:23:43.569Z,23.90
2024-03-05T10:24:43.578Z,24.30
2024-03-05T10:25:43.594Z,24.10
2024-03-05T10:26:43.652Z,24.20
2024-03-05T10:27:43.612Z,24.90
2024-03-05T10:28:43.573Z,24.60
2024-03-05T10:29:43.510Z,23.60
2024-03-05T10:30:43.556Z,23.10
2024-03-05T10:31:43.567Z,23.20
2024-03-05T10:32:43.535Z,23.70
2024-03-05T10:33:43.541Z,23.10
2024-03-05T10:34:43.516Z,25.30
2024-03-05T10:35:43.504Z,24.20
2024-03-05T10:36:43.495Z,24.80
2024-03-05T10:37:43.576Z,24.90
2024-03-05T10:38:43.435Z,23.80
2024-03-05T10:39:43.436Z,24.00
2024-03-05T10:40:43.435Z,22.90
2024-03-05T10:41:47.711Z,23.40
2024-03-05T10:42:45.441Z,23.90
2024-03-05T10:43:43.439Z,23.00
2024-03-05T10:44:43.425Z,23.90
2024-03-05T10:45:43.455Z,23.60
2024-03-05T10:46:43.433Z,21.80
2024-03-05T10:47:43.379Z,23.80
2024-03-05T10:48:43.376Z,24.40
2024-03-05T10:49:43.337Z,23.50
2024-03-05T10:50:43.430Z,23.20
2024-03-05T10:51:43.346Z,22.90
2024-03-05T10:52:43.345Z,22.30
2024-03-05T10:53:43.328Z,23.60
2024-03-05T10:54:43.312Z,23.10
2024-03-05T10:55:43.328Z,22.40
2024-03-05T10:56:45.382Z,23.50
2024-03-05T10:57:43.310Z,23.60
2024-03-05T10:58:43.246Z,23.50
2024-03-05T10:59:44.184Z,24.40
2024-03-05T11:00:43.369Z,23.50
2024-03-05T11:01:43.631Z,22.10
2024-03-05T11:02:43.191Z,22.90
2024-03-05T11:03:43.128Z,22.90
2024-03-05T11:04:43.139Z,23.50
2024-03-05T11:05:43.133Z,23.10
2024-03-05T11:06:43.814Z,23.80
2024-03-05T11:45:58.572Z,21.30
2024-03-05T11:46:21.840Z,22.10
2024-03-05T11:47:21.757Z,22.40
2024-03-05T11:48:23.383Z,22.70
2024-03-05T11:49:21.779Z,21.90
2024-03-05T11:50:21.681Z,21.70
2024-03-05T11:51:21.665Z,20.80
2024-03-05T11:52:21.737Z,20.80
2024-03-05T11:53:21.641Z,21.00
2024-03-05T11:54:23.943Z,20.70
2024-03-05T11:55:21.652Z,20.40
2024-03-05T11:56:21.623Z,19.50
2024-03-05T11:57:21.627Z,19.00
2024-03-05T11:58:21.678Z,19.10
2024-03-05T11:59:21.584Z,19.20
2024-03-05T12:00:21.586Z,20.60
2024-03-05T12:01:21.664Z,19.60
2024-03-05T12:02:21.667Z,18.30
2024-03-05T12:03:21.552Z,19.00
2024-03-05T12:04:21.584Z,19.00
2024-03-05T12:05:21.624Z,20.30
2024-03-05T12:06:21.556Z,18.70
2024-03-05T12:07:21.546Z,19.40
2024-03-05T12:08:21.503Z,19.90
2024-03-05T12:09:21.901Z,20.00
2024-03-05T12:10:21.590Z,20.10
2024-03-05T12:11:21.662Z,18.70
2024-03-05T12:12:21.453Z,17.80
2024-03-05T12:13:21.491Z,18.30
2024-03-05T12:14:21.437Z,18.60
2024-03-05T12:15:21.440Z,18.00
2024-03-05T12:16:21.550Z,18.20
2024-03-05T12:17:22.044Z,17.90
2024-03-05T12:18:21.405Z,18.40
2024-03-05T12:19:21.412Z,18.20
2024-03-05T12:20:21.384Z,17.00
2024-03-05T12:21:23.757Z,17.50
2024-03-05T12:22:21.408Z,17.40
2024-03-05T12:23:40.520Z,18.10
2024-03-05T12:24:22.347Z,17.90
2024-03-05T12:25:21.386Z,18.10
2024-03-05T12:26:21.306Z,17.00
2024-03-05T12:27:21.293Z,17.30
2024-03-05T12:28:21.363Z,15.80
2024-03-05T12:29:21.317Z,16.30
2024-03-05T12:30:24.405Z,15.50
2024-03-05T12:31:21.311Z,15.30
2024-03-05T12:32:21.342Z,16.00
2024-03-05T12:33:21.252Z,15.50
2024-03-05T12:34:21.254Z,15.30
2024-03-05T12:35:21.246Z,15.30
2024-03-05T12:36:21.214Z,14.60
2024-03-05T12:37:21.521Z,15.10
2024-03-05T12:38:21.221Z,14.30
2024-03-05T12:39:21.189Z,14.50
2024-03-05T12:40:21.216Z,13.80
2024-03-05T12:41:21.171Z,14.30
2024-03-05T12:42:21.152Z,13.80
2024-03-05T12:43:21.207Z,13.50
2024-03-05T12:44:21.172Z,13.50
2024-03-05T12:45:21.148Z,13.10
2024-03-05T12:46:21.210Z,14.20
2024-03-05T12:47:21.099Z,14.20
2024-03-05T12:48:21.137Z,13.70
2024-03-05T12:49:21.128Z,13.70
2024-03-05T12:50:21.059Z,14.60
2024-03-05T12:51:21.051Z,14.40
2024-03-05T12:52:21.137Z,14.00
2024-03-05T12:53:21.089Z,14.10
2024-03-05T12:54:21.030Z,13.20
2024-03-05T12:55:21.054Z,13.70
2024-03-05T12:56:21.034Z,13.90
2024-03-05T12:57:20.990Z,13.20
2024-03-05T12:58:22.173Z,13.40
2024-03-05T12:59:22.137Z,13.20
2024-03-05T13:00:22.110Z,14.00
2024-03-05T13:01:22.193Z,12.60
2024-03-05T13:02:22.183Z,12.70
2024-03-05T13:03:22.105Z,12.70
2024-03-05T13:04:23.033Z,12.70
2024-03-05T13:05:22.165Z,12.40
2024-03-05T13:06:22.098Z,11.20
2024-03-05T13:07:22.432Z,11.40
2024-03-05T13:08:22.064Z,11.50
2024-03-05T13:09:22.018Z,11.20
2024-03-05T13:10:22.193Z,11.70
2024-03-05T13:11:22.253Z,11.70
2024-03-05T13:12:22.068Z,12.10
2024-03-05T13:13:22.079Z,10.70
2024-03-05T13:14:24.300Z,11.90
2024-03-05T13:15:23.005Z,12.40
2024-03-05T13:16:22.035Z,12.20
2024-03-05T13:17:21.994Z,11.90
2024-03-05T13:18:21.993Z,11.10
2024-03-05T13:19:22.016Z,11.90
2024-03-05T13:20:21.965Z,12.10
2024-03-05T13:21:22.038Z,13.20
2024-03-05T13:22:22.090Z,12.70
2024-03-05T13:23:21.916Z,13.00
2024-03-05T13:24:21.915Z,13.00
2024-03-05T13:25:21.972Z,12.90
2024-03-05T13:26:21.955Z,13.70
2024-03-05T13:27:21.975Z,14.80
2024-03-05T13:28:21.978Z,14.60
2024-03-05T13:29:21.864Z,14.30
2024-03-05T13:30:21.965Z,14.40